sensor_id;sensor_type;location;lat;lon;timestamp;temperature;humidity
42905;DHT22;28550;51.228;4.528;2023-10-08T00:01:04;15.70;1.00
42905;DHT22;28550;51.228;4.528;2023-10-08T00:03:35;15.70;1.00
42905;DHT22;28550;51.228;4.528;2023-10-08T00:06:03;15.50;1.00
42905;DHT22;28550;51.228;4.528;2023-10-08T00:08:33;15.50;1.00
42905;DHT22;28550;51.228;4.528;2023-10-08T00:11:07;15.40;1.00
42905;DHT22;28550;51.228;4.528;2023-10-08T00:13:36;15.30;3.50
42905;DHT22;28550;51.228;4.528;2023-10-08T00:16:22;15.30;6.30
42905;DHT22;28550;51.228;4.528;2023-10-08T00:18:55;15.20;9.90
42905;DHT22;28550;51.228;4.528;2023-10-08T00:21:37;15.10;10.10
42905;DHT22;28550;51.228;4.528;2023-10-08T00:24:05;15.10;10.20
42905;DHT22;28550;51.228;4.528;2023-10-08T00:26:33;15.00;14.40
42905;DHT22;28550;51.228;4.528;2023-10-08T00:29:07;14.90;17.00
42905;DHT22;28550;51.228;4.528;2023-10-08T00:31:42;14.90;23.60
42905;DHT22;28550;51.228;4.528;2023-10-08T00:34:22;14.80;28.90
42905;DHT22;28550;51.228;4.528;2023-10-08T00:36:55;14.80;25.50
42905;DHT22;28550;51.228;4.528;2023-10-08T00:39:35;14.80;30.00
42905;DHT22;28550;51.228;4.528;2023-10-08T00:42:03;14.70;33.10
42905;DHT22;28550;51.228;4.528;2023-10-08T00:44:34;14.60;34.00
42905;DHT22;28550;51.228;4.528;2023-10-08T00:47:20;14.50;34.00
42905;DHT22;28550;51.228;4.528;2023-10-08T00:49:51;14.60;29.80
42905;DHT22;28550;51.228;4.528;2023-10-08T00:52:40;14.50;31.50
42905;DHT22;28550;51.228;4.528;2023-10-08T00:55:08;14.60;28.30
42905;DHT22;28550;51.228;4.528;2023-10-08T00:57:35;14.50;28.60
42905;DHT22;28550;51.228;4.528;2023-10-08T01:00:04;14.50;27.30
42905;DHT22;28550;51.228;4.528;2023-10-08T01:02:32;14.50;23.80
42905;DHT22;28550;51.228;4.528;2023-10-08T01:05:33;14.40;23.80
42905;DHT22;28550;51.228;4.528;2023-10-08T01:08:14;14.40;27.00
42905;DHT22;28550;51.228;4.528;2023-10-08T01:10:47;14.30;25.40
42905;DHT22;28550;51.228;4.528;2023-10-08T01:13:14;14.30;27.00
42905;DHT22;28550;51.228;4.528;2023-10-08T01:15:47;14.40;15.40
42905;DHT22;28550;51.228;4.528;2023-10-08T01:18:17;14.50;21.50
42905;DHT22;28550;51.228;4.528;2023-10-08T01:20:55;14.50;15.90
42905;DHT22;28550;51.228;4.528;2023-10-08T01:23:21;14.50;17.00
42905;DHT22;28550;51.228;4.528;2023-10-08T01:25:49;14.50;7.50
42905;DHT22;28550;51.228;4.528;2023-10-08T01:28:16;14.60;1.00
42905;DHT22;28550;51.228;4.528;2023-10-08T01:30:54;14.60;1.00
42905;DHT22;28550;51.228;4.528;2023-10-08T01:33:20;14.50;6.30
42905;DHT22;28550;51.228;4.528;2023-10-08T01:35:47;14.50;8.30
42905;DHT22;28550;51.228;4.528;2023-10-08T01:38:30;14.50;11.20
42905;DHT22;28550;51.228;4.528;2023-10-08T01:40:58;14.50;11.70
42905;DHT22;28550;51.228;4.528;2023-10-08T01:43:29;14.40;16.00
42905;DHT22;28550;51.228;4.528;2023-10-08T01:48:47;14.40;20.00
42905;DHT22;28550;51.228;4.528;2023-10-08T01:51:14;14.40;23.00
42905;DHT22;28550;51.228;4.528;2023-10-08T01:54:18;14.40;20.80
42905;DHT22;28550;51.228;4.528;2023-10-08T01:56:46;14.40;17.40
42905;DHT22;28550;51.228;4.528;2023-10-08T01:59:32;14.20;24.10
42905;DHT22;28550;51.228;4.528;2023-10-08T02:02:20;14.20;26.40
42905;DHT22;28550;51.228;4.528;2023-10-08T02:04:46;14.30;22.00
42905;DHT22;28550;51.228;4.528;2023-10-08T02:07:12;14.20;30.40
42905;DHT22;28550;51.228;4.528;2023-10-08T02:09:45;14.30;29.60
42905;DHT22;28550;51.228;4.528;2023-10-08T02:12:13;14.20;33.50
42905;DHT22;28550;51.228;4.528;2023-10-08T02:14:40;14.20;42.10
42905;DHT22;28550;51.228;4.528;2023-10-08T02:17:06;14.10;42.20
42905;DHT22;28550;51.228;4.528;2023-10-08T02:19:34;14.10;44.60
42905;DHT22;28550;51.228;4.528;2023-10-08T02:22:02;14.10;45.10
42905;DHT22;28550;51.228;4.528;2023-10-08T02:24:31;14.20;46.20
42905;DHT22;28550;51.228;4.528;2023-10-08T02:26:58;14.10;47.80
42905;DHT22;28550;51.228;4.528;2023-10-08T02:29:27;14.00;48.30
42905;DHT22;28550;51.228;4.528;2023-10-08T02:31:52;14.10;50.60
42905;DHT22;28550;51.228;4.528;2023-10-08T02:34:22;14.10;48.50
42905;DHT22;28550;51.228;4.528;2023-10-08T02:36:50;14.10;49.60
42905;DHT22;28550;51.228;4.528;2023-10-08T02:39:17;14.00;52.50
42905;DHT22;28550;51.228;4.528;2023-10-08T02:41:48;14.00;55.50
42905;DHT22;28550;51.228;4.528;2023-10-08T02:44:15;14.00;58.60
42905;DHT22;28550;51.228;4.528;2023-10-08T02:46:53;13.90;60.30
42905;DHT22;28550;51.228;4.528;2023-10-08T02:49:22;14.00;59.70
42905;DHT22;28550;51.228;4.528;2023-10-08T02:51:57;14.00;58.30
42905;DHT22;28550;51.228;4.528;2023-10-08T02:54:23;14.00;58.50
42905;DHT22;28550;51.228;4.528;2023-10-08T02:56:57;14.00;57.90
42905;DHT22;28550;51.228;4.528;2023-10-08T02:59:32;14.00;59.80
42905;DHT22;28550;51.228;4.528;2023-10-08T03:02:20;14.00;63.60
42905;DHT22;28550;51.228;4.528;2023-10-08T03:04:51;14.00;62.60
42905;DHT22;28550;51.228;4.528;2023-10-08T03:07:26;13.90;64.40
42905;DHT22;28550;51.228;4.528;2023-10-08T03:10:03;13.90;64.00
42905;DHT22;28550;51.228;4.528;2023-10-08T03:12:30;14.00;61.20
42905;DHT22;28550;51.228;4.528;2023-10-08T03:14:58;13.90;62.50
42905;DHT22;28550;51.228;4.528;2023-10-08T03:17:36;14.00;64.20
42905;DHT22;28550;51.228;4.528;2023-10-08T03:20:23;14.00;60.40
42905;DHT22;28550;51.228;4.528;2023-10-08T03:22:56;13.90;63.60
42905;DHT22;28550;51.228;4.528;2023-10-08T03:25:42;14.00;61.20
42905;DHT22;28550;51.228;4.528;2023-10-08T03:28:08;14.00;61.30
42905;DHT22;28550;51.228;4.528;2023-10-08T03:30:34;14.00;60.60
42905;DHT22;28550;51.228;4.528;2023-10-08T03:33:17;13.90;65.50
42905;DHT22;28550;51.228;4.528;2023-10-08T03:35:48;13.90;68.70
42905;DHT22;28550;51.228;4.528;2023-10-08T03:38:25;13.80;71.80
42905;DHT22;28550;51.228;4.528;2023-10-08T03:41:11;13.70;75.00
42905;DHT22;28550;51.228;4.528;2023-10-08T03:43:48;13.60;76.60
42905;DHT22;28550;51.228;4.528;2023-10-08T03:46:40;13.60;79.30
42905;DHT22;28550;51.228;4.528;2023-10-08T03:49:35;13.60;78.60
42905;DHT22;28550;51.228;4.528;2023-10-08T03:52:05;13.60;78.20
42905;DHT22;28550;51.228;4.528;2023-10-08T03:54:32;13.60;78.10
42905;DHT22;28550;51.228;4.528;2023-10-08T03:57:17;13.60;78.40
42905;DHT22;28550;51.228;4.528;2023-10-08T03:59:50;13.50;81.30
42905;DHT22;28550;51.228;4.528;2023-10-08T04:02:21;13.40;80.00
42905;DHT22;28550;51.228;4.528;2023-10-08T04:05:08;13.50;82.30
42905;DHT22;28550;51.228;4.528;2023-10-08T04:07:54;13.50;81.70
42905;DHT22;28550;51.228;4.528;2023-10-08T04:10:38;13.50;81.80
42905;DHT22;28550;51.228;4.528;2023-10-08T04:13:04;13.50;80.80
42905;DHT22;28550;51.228;4.528;2023-10-08T04:15:35;13.40;81.20
42905;DHT22;28550;51.228;4.528;2023-10-08T04:18:10;13.40;84.90
42905;DHT22;28550;51.228;4.528;2023-10-08T04:20:38;13.30;85.50
42905;DHT22;28550;51.228;4.528;2023-10-08T04:23:09;13.30;84.90
42905;DHT22;28550;51.228;4.528;2023-10-08T04:25:47;13.20;85.20
42905;DHT22;28550;51.228;4.528;2023-10-08T04:28:19;13.30;87.60
42905;DHT22;28550;51.228;4.528;2023-10-08T04:30:47;13.30;87.60
42905;DHT22;28550;51.228;4.528;2023-10-08T04:33:16;13.30;88.90
42905;DHT22;28550;51.228;4.528;2023-10-08T04:35:45;13.30;86.50
42905;DHT22;28550;51.228;4.528;2023-10-08T04:38:19;13.30;87.40
42905;DHT22;28550;51.228;4.528;2023-10-08T04:40:55;13.30;88.60
42905;DHT22;28550;51.228;4.528;2023-10-08T04:43:23;13.30;88.30
42905;DHT22;28550;51.228;4.528;2023-10-08T04:46:02;13.30;89.00
42905;DHT22;28550;51.228;4.528;2023-10-08T04:48:47;13.30;88.90
42905;DHT22;28550;51.228;4.528;2023-10-08T04:51:22;13.30;90.90
42905;DHT22;28550;51.228;4.528;2023-10-08T04:53:48;13.20;90.40
42905;DHT22;28550;51.228;4.528;2023-10-08T04:56:15;13.30;90.40
42905;DHT22;28550;51.228;4.528;2023-10-08T04:58:50;13.30;90.50
42905;DHT22;28550;51.228;4.528;2023-10-08T05:01:18;13.30;90.00
42905;DHT22;28550;51.228;4.528;2023-10-08T05:03:56;13.30;87.60
42905;DHT22;28550;51.228;4.528;2023-10-08T05:06:31;13.20;90.50
42905;DHT22;28550;51.228;4.528;2023-10-08T05:09:10;13.30;91.50
42905;DHT22;28550;51.228;4.528;2023-10-08T05:11:39;13.30;92.40
42905;DHT22;28550;51.228;4.528;2023-10-08T05:14:25;13.30;92.00
42905;DHT22;28550;51.228;4.528;2023-10-08T05:17:09;13.30;92.10
42905;DHT22;28550;51.228;4.528;2023-10-08T05:19:36;13.30;93.00
42905;DHT22;28550;51.228;4.528;2023-10-08T05:22:26;13.30;92.50
42905;DHT22;28550;51.228;4.528;2023-10-08T05:24:53;13.40;91.40
42905;DHT22;28550;51.228;4.528;2023-10-08T05:27:38;13.30;91.50
42905;DHT22;28550;51.228;4.528;2023-10-08T05:30:17;13.30;91.40
42905;DHT22;28550;51.228;4.528;2023-10-08T05:33:04;13.30;92.30
42905;DHT22;28550;51.228;4.528;2023-10-08T05:35:44;13.30;92.00
42905;DHT22;28550;51.228;4.528;2023-10-08T05:41:48;13.20;93.10
42905;DHT22;28550;51.228;4.528;2023-10-08T05:44:32;13.20;93.40
42905;DHT22;28550;51.228;4.528;2023-10-08T05:47:12;13.30;92.20
42905;DHT22;28550;51.228;4.528;2023-10-08T05:49:54;13.30;92.20
42905;DHT22;28550;51.228;4.528;2023-10-08T05:52:45;13.30;91.10
42905;DHT22;28550;51.228;4.528;2023-10-08T05:55:19;13.30;92.90
42905;DHT22;28550;51.228;4.528;2023-10-08T05:57:58;13.30;92.20
42905;DHT22;28550;51.228;4.528;2023-10-08T06:00:50;13.30;92.40
42905;DHT22;28550;51.228;4.528;2023-10-08T06:03:20;13.30;92.60
42905;DHT22;28550;51.228;4.528;2023-10-08T06:06:06;13.40;93.00
42905;DHT22;28550;51.228;4.528;2023-10-08T06:08:44;13.40;92.70
42905;DHT22;28550;51.228;4.528;2023-10-08T06:11:28;13.40;92.00
42905;DHT22;28550;51.228;4.528;2023-10-08T06:14:18;13.50;92.80
42905;DHT22;28550;51.228;4.528;2023-10-08T06:17:02;13.60;91.80
42905;DHT22;28550;51.228;4.528;2023-10-08T06:20:07;13.70;92.40
42905;DHT22;28550;51.228;4.528;2023-10-08T06:22:36;13.80;92.20
42905;DHT22;28550;51.228;4.528;2023-10-08T06:25:05;13.90;91.40
42905;DHT22;28550;51.228;4.528;2023-10-08T06:27:49;14.00;91.20
42905;DHT22;28550;51.228;4.528;2023-10-08T06:30:19;14.10;91.00
42905;DHT22;28550;51.228;4.528;2023-10-08T06:32:45;14.30;88.60
42905;DHT22;28550;51.228;4.528;2023-10-08T06:35:11;14.50;86.00
42905;DHT22;28550;51.228;4.528;2023-10-08T06:37:47;14.60;86.20
42905;DHT22;28550;51.228;4.528;2023-10-08T06:40:18;14.70;81.10
42905;DHT22;28550;51.228;4.528;2023-10-08T06:43:10;14.90;78.10
42905;DHT22;28550;51.228;4.528;2023-10-08T06:45:50;14.90;76.50
42905;DHT22;28550;51.228;4.528;2023-10-08T06:48:24;15.10;73.50
42905;DHT22;28550;51.228;4.528;2023-10-08T06:50:55;15.30;68.50
42905;DHT22;28550;51.228;4.528;2023-10-08T06:53:25;15.30;65.80
42905;DHT22;28550;51.228;4.528;2023-10-08T06:55:51;15.30;64.10
42905;DHT22;28550;51.228;4.528;2023-10-08T06:58:32;15.50;65.90
42905;DHT22;28550;51.228;4.528;2023-10-08T07:00:59;15.80;55.80
42905;DHT22;28550;51.228;4.528;2023-10-08T07:03:30;16.00;35.50
42905;DHT22;28550;51.228;4.528;2023-10-08T07:05:57;16.30;35.60
42905;DHT22;28550;51.228;4.528;2023-10-08T07:08:43;16.50;30.90
42905;DHT22;28550;51.228;4.528;2023-10-08T07:11:12;16.80;25.40
42905;DHT22;28550;51.228;4.528;2023-10-08T07:13:41;17.00;19.00
42905;DHT22;28550;51.228;4.528;2023-10-08T07:16:09;17.30;3.40
42905;DHT22;28550;51.228;4.528;2023-10-08T07:18:38;17.60;1.00
42905;DHT22;28550;51.228;4.528;2023-10-08T07:21:04;17.90;1.00
42905;DHT22;28550;51.228;4.528;2023-10-08T07:23:38;17.90;1.00
42905;DHT22;28550;51.228;4.528;2023-10-08T07:26:30;18.40;1.00
42905;DHT22;28550;51.228;4.528;2023-10-08T07:29:03;18.70;1.00
42905;DHT22;28550;51.228;4.528;2023-10-08T07:31:39;18.90;1.00
42905;DHT22;28550;51.228;4.528;2023-10-08T07:34:13;19.30;1.00
42905;DHT22;28550;51.228;4.528;2023-10-08T07:36:52;19.50;1.00
42905;DHT22;28550;51.228;4.528;2023-10-08T07:39:20;19.50;1.00
42905;DHT22;28550;51.228;4.528;2023-10-08T07:42:08;19.70;1.00
42905;DHT22;28550;51.228;4.528;2023-10-08T07:44:37;19.90;1.00
42905;DHT22;28550;51.228;4.528;2023-10-08T07:47:05;20.20;99.90
42905;DHT22;28550;51.228;4.528;2023-10-08T07:49:44;20.40;99.90
42905;DHT22;28550;51.228;4.528;2023-10-08T07:52:10;20.70;99.90
42905;DHT22;28550;51.228;4.528;2023-10-08T07:54:43;21.00;1.00
42905;DHT22;28550;51.228;4.528;2023-10-08T07:57:15;21.20;99.90
42905;DHT22;28550;51.228;4.528;2023-10-08T08:00:09;21.60;1.00
42905;DHT22;28550;51.228;4.528;2023-10-08T08:02:51;21.90;13.80
42905;DHT22;28550;51.228;4.528;2023-10-08T08:05:18;22.00;99.90
42905;DHT22;28550;51.228;4.528;2023-10-08T08:07:44;22.40;1.00
42905;DHT22;28550;51.228;4.528;2023-10-08T08:10:16;22.80;99.90
42905;DHT22;28550;51.228;4.528;2023-10-08T08:12:44;22.90;99.90
42905;DHT22;28550;51.228;4.528;2023-10-08T08:15:11;23.20;61.30
42905;DHT22;28550;51.228;4.528;2023-10-08T08:17:44;23.70;99.90
42905;DHT22;28550;51.228;4.528;2023-10-08T08:20:13;24.40;1.00
42905;DHT22;28550;51.228;4.528;2023-10-08T08:22:50;25.00;99.90
42905;DHT22;28550;51.228;4.528;2023-10-08T08:25:42;25.50;92.10
42905;DHT22;28550;51.228;4.528;2023-10-08T08:28:18;25.30;99.90
42905;DHT22;28550;51.228;4.528;2023-10-08T08:30:47;25.20;99.90
42905;DHT22;28550;51.228;4.528;2023-10-08T08:33:14;25.40;99.90
42905;DHT22;28550;51.228;4.528;2023-10-08T08:35:51;25.80;99.90
42905;DHT22;28550;51.228;4.528;2023-10-08T08:38:22;26.50;99.90
42905;DHT22;28550;51.228;4.528;2023-10-08T08:40:50;27.20;99.90
42905;DHT22;28550;51.228;4.528;2023-10-08T08:43:17;27.60;17.90
42905;DHT22;28550;51.228;4.528;2023-10-08T08:45:44;27.90;1.00
42905;DHT22;28550;51.228;4.528;2023-10-08T08:48:17;28.30;1.00
42905;DHT22;28550;51.228;4.528;2023-10-08T08:50:47;28.80;1.00
42905;DHT22;28550;51.228;4.528;2023-10-08T08:53:14;28.90;1.00
42905;DHT22;28550;51.228;4.528;2023-10-08T08:55:40;28.90;99.90
42905;DHT22;28550;51.228;4.528;2023-10-08T08:58:09;28.80;1.00
42905;DHT22;28550;51.228;4.528;2023-10-08T09:00:38;28.80;1.00
42905;DHT22;28550;51.228;4.528;2023-10-08T09:03:06;28.80;1.00
42905;DHT22;28550;51.228;4.528;2023-10-08T09:05:33;28.40;1.00
42905;DHT22;28550;51.228;4.528;2023-10-08T09:08:06;28.10;1.00
42905;DHT22;28550;51.228;4.528;2023-10-08T09:10:36;28.00;1.00
42905;DHT22;28550;51.228;4.528;2023-10-08T09:13:22;28.20;1.00
42905;DHT22;28550;51.228;4.528;2023-10-08T09:15:51;28.50;1.00
42905;DHT22;28550;51.228;4.528;2023-10-08T09:18:21;28.40;1.00
42905;DHT22;28550;51.228;4.528;2023-10-08T09:20:46;28.10;1.00
42905;DHT22;28550;51.228;4.528;2023-10-08T09:23:15;27.70;1.00
42905;DHT22;28550;51.228;4.528;2023-10-08T09:25:44;27.40;1.00
42905;DHT22;28550;51.228;4.528;2023-10-08T09:28:11;27.10;1.00
42905;DHT22;28550;51.228;4.528;2023-10-08T09:30:40;27.00;99.90
42905;DHT22;28550;51.228;4.528;2023-10-08T09:33:07;26.80;99.90
42905;DHT22;28550;51.228;4.528;2023-10-08T09:35:34;26.40;1.00
42905;DHT22;28550;51.228;4.528;2023-10-08T09:38:02;26.10;94.90
42905;DHT22;28550;51.228;4.528;2023-10-08T09:40:28;25.60;1.00
42905;DHT22;28550;51.228;4.528;2023-10-08T09:42:55;25.20;99.90
42905;DHT22;28550;51.228;4.528;2023-10-08T09:45:21;25.00;42.90
42905;DHT22;28550;51.228;4.528;2023-10-08T09:47:53;24.50;1.00
42905;DHT22;28550;51.228;4.528;2023-10-08T09:50:27;24.40;1.00
42905;DHT22;28550;51.228;4.528;2023-10-08T09:53:02;24.60;34.60
42905;DHT22;28550;51.228;4.528;2023-10-08T09:55:33;24.50;99.90
42905;DHT22;28550;51.228;4.528;2023-10-08T09:57:59;24.60;99.90
42905;DHT22;28550;51.228;4.528;2023-10-08T10:00:26;24.60;1.00
42905;DHT22;28550;51.228;4.528;2023-10-08T10:03:01;24.60;1.00
42905;DHT22;28550;51.228;4.528;2023-10-08T10:05:32;24.60;99.90
42905;DHT22;28550;51.228;4.528;2023-10-08T10:08:02;24.50;1.00
42905;DHT22;28550;51.228;4.528;2023-10-08T10:10:32;24.40;1.00
42905;DHT22;28550;51.228;4.528;2023-10-08T10:13:00;24.20;1.00
42905;DHT22;28550;51.228;4.528;2023-10-08T10:15:49;24.40;1.00
42905;DHT22;28550;51.228;4.528;2023-10-08T10:18:28;24.90;99.90
42905;DHT22;28550;51.228;4.528;2023-10-08T10:21:25;25.90;99.90
42905;DHT22;28550;51.228;4.528;2023-10-08T10:23:55;27.40;1.00
42905;DHT22;28550;51.228;4.528;2023-10-08T10:26:48;28.60;99.90
42905;DHT22;28550;51.228;4.528;2023-10-08T10:29:19;30.00;1.00
42905;DHT22;28550;51.228;4.528;2023-10-08T10:34:16;31.30;99.90
42905;DHT22;28550;51.228;4.528;2023-10-08T10:36:50;31.40;99.90
42905;DHT22;28550;51.228;4.528;2023-10-08T10:39:25;31.80;99.90
42905;DHT22;28550;51.228;4.528;2023-10-08T10:41:57;30.90;99.90
42905;DHT22;28550;51.228;4.528;2023-10-08T10:44:28;29.80;99.90
42905;DHT22;28550;51.228;4.528;2023-10-08T10:46:59;29.00;99.90
42905;DHT22;28550;51.228;4.528;2023-10-08T10:49:48;28.60;1.00
42905;DHT22;28550;51.228;4.528;2023-10-08T10:52:36;29.00;1.00
42905;DHT22;28550;51.228;4.528;2023-10-08T10:55:17;28.90;1.00
42905;DHT22;28550;51.228;4.528;2023-10-08T10:57:54;28.40;1.00
42905;DHT22;28550;51.228;4.528;2023-10-08T11:00:41;27.30;99.90
42905;DHT22;28550;51.228;4.528;2023-10-08T11:03:07;27.50;99.90
42905;DHT22;28550;51.228;4.528;2023-10-08T11:06:07;27.50;1.00
42905;DHT22;28550;51.228;4.528;2023-10-08T11:08:50;26.50;99.90
42905;DHT22;28550;51.228;4.528;2023-10-08T11:43:35;26.90;99.90
42905;DHT22;28550;51.228;4.528;2023-10-08T12:06:24;34.50;99.90
42905;DHT22;28550;51.228;4.528;2023-10-08T12:09:24;34.90;99.90
42905;DHT22;28550;51.228;4.528;2023-10-08T12:12:42;34.90;99.90
42905;DHT22;28550;51.228;4.528;2023-10-08T12:15:57;35.30;99.90
42905;DHT22;28550;51.228;4.528;2023-10-08T12:26:42;36.60;99.90
42905;DHT22;28550;51.228;4.528;2023-10-08T12:29:19;36.40;99.90
42905;DHT22;28550;51.228;4.528;2023-10-08T12:32:08;36.50;99.90
42905;DHT22;28550;51.228;4.528;2023-10-08T12:35:14;36.50;99.90
42905;DHT22;28550;51.228;4.528;2023-10-08T12:37:50;36.50;99.90
42905;DHT22;28550;51.228;4.528;2023-10-08T12:43:43;36.20;99.90
42905;DHT22;28550;51.228;4.528;2023-10-08T12:52:12;34.60;99.90
42905;DHT22;28550;51.228;4.528;2023-10-08T12:54:40;34.90;99.90
42905;DHT22;28550;51.228;4.528;2023-10-08T12:57:10;35.50;99.90
42905;DHT22;28550;51.228;4.528;2023-10-08T12:59:44;36.10;99.90
42905;DHT22;28550;51.228;4.528;2023-10-08T13:02:35;36.10;97.10
42905;DHT22;28550;51.228;4.528;2023-10-08T13:05:26;37.20;99.90
42905;DHT22;28550;51.228;4.528;2023-10-08T13:07:57;37.50;84.20
42905;DHT22;28550;51.228;4.528;2023-10-08T13:10:34;37.30;92.00
42905;DHT22;28550;51.228;4.528;2023-10-08T13:13:00;36.80;95.80
42905;DHT22;28550;51.228;4.528;2023-10-08T13:15:26;36.70;89.70
42905;DHT22;28550;51.228;4.528;2023-10-08T13:17:55;36.60;93.60
42905;DHT22;28550;51.228;4.528;2023-10-08T13:20:45;36.50;99.90
42905;DHT22;28550;51.228;4.528;2023-10-08T13:23:19;36.50;92.80
42905;DHT22;28550;51.228;4.528;2023-10-08T13:26:20;36.30;94.90
42905;DHT22;28550;51.228;4.528;2023-10-08T13:28:50;36.70;94.50
42905;DHT22;28550;51.228;4.528;2023-10-08T13:31:17;36.80;94.70
42905;DHT22;28550;51.228;4.528;2023-10-08T13:34:04;36.00;64.30
42905;DHT22;28550;51.228;4.528;2023-10-08T13:36:35;35.30;74.80
42905;DHT22;28550;51.228;4.528;2023-10-08T13:45:25;32.50;92.10
42905;DHT22;28550;51.228;4.528;2023-10-08T13:47:58;32.20;96.20
42905;DHT22;28550;51.228;4.528;2023-10-08T13:50:44;32.10;93.70
42905;DHT22;28550;51.228;4.528;2023-10-08T13:53:11;32.60;99.90
42905;DHT22;28550;51.228;4.528;2023-10-08T13:55:59;33.00;99.10
42905;DHT22;28550;51.228;4.528;2023-10-08T13:58:31;33.10;99.90
42905;DHT22;28550;51.228;4.528;2023-10-08T14:00:59;33.10;99.90
42905;DHT22;28550;51.228;4.528;2023-10-08T14:03:31;32.70;99.90
42905;DHT22;28550;51.228;4.528;2023-10-08T14:05:58;32.10;99.90
42905;DHT22;28550;51.228;4.528;2023-10-08T14:08:29;31.50;99.90
42905;DHT22;28550;51.228;4.528;2023-10-08T14:10:59;31.00;99.90
42905;DHT22;28550;51.228;4.528;2023-10-08T14:13:34;30.60;99.90
42905;DHT22;28550;51.228;4.528;2023-10-08T14:16:14;30.20;99.90
42905;DHT22;28550;51.228;4.528;2023-10-08T14:18:43;29.80;99.90
42905;DHT22;28550;51.228;4.528;2023-10-08T14:21:16;30.10;99.90
42905;DHT22;28550;51.228;4.528;2023-10-08T14:24:02;30.60;99.90
42905;DHT22;28550;51.228;4.528;2023-10-08T14:30:00;31.50;99.90
42905;DHT22;28550;51.228;4.528;2023-10-08T14:32:49;30.60;99.90
42905;DHT22;28550;51.228;4.528;2023-10-08T14:35:17;30.20;99.90
42905;DHT22;28550;51.228;4.528;2023-10-08T14:51:27;28.70;99.90
42905;DHT22;28550;51.228;4.528;2023-10-08T14:57:15;28.90;99.90
42905;DHT22;28550;51.228;4.528;2023-10-08T15:03:16;28.60;99.90
42905;DHT22;28550;51.228;4.528;2023-10-08T15:12:28;28.40;99.90
42905;DHT22;28550;51.228;4.528;2023-10-08T15:14:56;28.30;99.90
42905;DHT22;28550;51.228;4.528;2023-10-08T15:34:36;26.00;1.00
42905;DHT22;28550;51.228;4.528;2023-10-08T15:41:23;27.10;99.90
42905;DHT22;28550;51.228;4.528;2023-10-08T15:50:22;27.10;99.90
42905;DHT22;28550;51.228;4.528;2023-10-08T15:53:30;26.80;99.90
42905;DHT22;28550;51.228;4.528;2023-10-08T15:56:30;26.40;37.00
42905;DHT22;28550;51.228;4.528;2023-10-08T16:02:56;25.60;98.70
42905;DHT22;28550;51.228;4.528;2023-10-08T16:05:38;25.20;99.90
42905;DHT22;28550;51.228;4.528;2023-10-08T16:19:31;23.80;1.00
42905;DHT22;28550;51.228;4.528;2023-10-08T16:22:24;23.50;99.90
42905;DHT22;28550;51.228;4.528;2023-10-08T16:25:23;23.30;31.80
42905;DHT22;28550;51.228;4.528;2023-10-08T16:28:16;23.20;99.90
42905;DHT22;28550;51.228;4.528;2023-10-08T16:35:58;22.80;70.00
42905;DHT22;28550;51.228;4.528;2023-10-08T16:38:29;22.70;99.90
42905;DHT22;28550;51.228;4.528;2023-10-08T16:56:28;21.70;1.00
42905;DHT22;28550;51.228;4.528;2023-10-08T16:58:59;21.50;1.00
42905;DHT22;28550;51.228;4.528;2023-10-08T17:04:58;21.10;1.00
42905;DHT22;28550;51.228;4.528;2023-10-08T17:07:28;20.90;1.00
42905;DHT22;28550;51.228;4.528;2023-10-08T17:10:09;20.70;1.00
42905;DHT22;28550;51.228;4.528;2023-10-08T17:12:57;20.60;1.00
42905;DHT22;28550;51.228;4.528;2023-10-08T17:15:26;20.30;1.00
42905;DHT22;28550;51.228;4.528;2023-10-08T17:33:06;19.60;14.70
42905;DHT22;28550;51.228;4.528;2023-10-08T17:52:29;18.90;35.00
